Time;durP1;ratioP1;P1;durP2;ratioP2;P2;SDS_P1;SDS_P2;PMS_P1;PMS_P2;Temp;Humidity;BMP_temperature;BMP_pressure;BME280_temperature;BME280_humidity;BME280_pressure;Samples;Min_cycle;Max_cycle;Signal;HPM_P1;HPM_P2
2023/04/29 00:00:57;;;;;;;2.20;2.00;;;;;;;;;;5020710;28;20432;-90
2023/04/29 00:03:31;;;;;;;5.20;2.90;;;14.10;99.90;;;;;;5021372;28;20745;-90
2023/04/29 00:05:57;;;;;;;2.50;1.83;;;;;;;;;;5020563;28;20487;-88
2023/04/29 00:08:23;;;;;;;2.97;2.10;;;14.00;99.90;;;;;;5021527;28;20416;-88
2023/04/29 00:10:49;;;;;;;4.90;2.97;;;;;;;;;;5020479;28;20417;-88
2023/04/29 00:13:16;;;;;;;4.73;2.10;;;;;;;;;;5021025;28;20409;-87
2023/04/29 00:15:42;;;;;;;3.97;2.33;;;;;;;;;;5038209;28;20428;-87
2023/04/29 00:18:08;;;;;;;3.57;3.10;;;;;;;;;;5019991;28;20452;-90
2023/04/29 00:20:35;;;;;;;3.03;2.73;;;;;;;;;;5003156;28;20416;-89
2023/04/29 00:23:01;;;;;;;3.30;2.60;;;;;;;;;;5036825;28;20404;-88
2023/04/29 00:25:27;;;;;;;2.90;2.47;;;;;;;;;;5018614;28;20463;-89
2023/04/29 00:27:53;;;;;;;1.80;1.70;;;;;;;;;;5036240;28;20397;-89
2023/04/29 00:30:19;;;;;;;3.20;2.73;;;;;;;;;;5036995;28;20441;-89
2023/04/29 00:32:48;;;;;;;2.60;2.30;;;13.60;99.90;;;;;;5018579;28;20413;-89
2023/04/29 00:35:15;;;;;;;2.50;2.30;;;;;;;;;;5019655;28;20843;-89
2023/04/29 00:37:41;;;;;;;3.10;2.23;;;;;;;;;;5019512;28;20470;-87
2023/04/29 00:40:07;;;;;;;2.10;1.87;;;;;;;;;;5040394;28;20401;-88
2023/04/29 00:42:33;;;;;;;9.63;2.83;;;;;;;;;;5023777;28;20455;-87
2023/04/29 00:44:59;;;;;;;3.73;3.20;;;;;;;;;;5041609;28;20400;-88
2023/04/29 00:47:25;;;;;;;2.43;1.93;;;;;;;;;;5041673;28;20453;-87
2023/04/29 00:49:51;;;;;;;6.00;2.90;;;;;;;;;;5041239;28;20449;-88
2023/04/29 00:52:18;;;;;;;6.80;3.75;;;13.20;99.90;;;;;;5060174;28;20407;-88
2023/04/29 00:54:55;;;;;;;3.70;3.07;;;13.10;99.90;;;;;;5062180;28;20173;-89
2023/04/29 00:57:21;;;;;;;7.30;3.40;;;;;;;;;;5052177;28;20755;-89
2023/04/29 00:59:48;;;;;;;4.87;3.00;;;13.20;99.90;;;;;;5039973;28;20587;-90
2023/04/29 01:02:28;;;;;;;3.57;2.87;;;13.00;99.90;;;;;;5039669;28;20440;-90
2023/04/29 01:04:54;;;;;;;4.30;3.30;;;;;;;;;;5040020;28;20466;-91
2023/04/29 01:07:36;;;;;;;3.10;2.65;;;13.10;99.90;;;;;;5045019;28;20424;-92
2023/04/29 01:10:18;;;;;;;4.20;3.00;;;13.20;99.90;;;;;;5046106;28;20184;-88
2023/04/29 01:13:21;;;;;;;3.45;3.08;;;13.20;99.90;;;;;;5052116;28;20457;-89
2023/04/29 01:15:58;;;;;;;4.35;2.50;;;13.20;99.90;;;;;;5033193;28;20196;-89
2023/04/29 01:18:29;;;;;;;11.45;2.97;;;13.20;99.90;;;;;;5030026;28;20209;-88
2023/04/29 01:20:57;;;;;;;8.50;3.27;;;13.10;99.90;;;;;;5030804;28;20243;-88
2023/04/29 01:23:27;;;;;;;4.70;3.03;;;13.20;99.90;;;;;;5033916;28;20438;-88
2023/04/29 01:25:53;;;;;;;4.18;2.47;;;;;;;;;;5049089;28;20527;-89
2023/04/29 01:28:39;;;;;;;3.50;2.57;;;13.20;99.90;;;;;;5025182;28;20221;-87
2023/04/29 01:31:17;;;;;;;4.40;2.77;;;13.20;99.90;;;;;;5043510;28;20972;-90
2023/04/29 01:34:18;;;;;;;6.37;3.67;;;13.30;99.90;;;;;;5033727;28;20483;-90
2023/04/29 01:36:44;;;;;;;4.63;3.00;;;;;;;;;;5045541;28;20459;-87
2023/04/29 01:39:36;;;;;;;3.77;3.20;;;13.10;99.90;;;;;;5029902;28;20717;-87
2023/04/29 01:42:25;;;;;;;4.60;2.97;;;13.20;99.90;;;;;;5035667;28;20551;-89
2023/04/29 01:44:55;;;;;;;5.20;4.20;;;13.10;99.90;;;;;;5032576;28;20535;-90
2023/04/29 01:47:21;;;;;;;3.93;3.53;;;;;;;;;;5033976;28;20802;-90
2023/04/29 01:49:48;;;;;;;4.78;3.50;;;13.10;99.90;;;;;;5050162;28;20432;-89
2023/04/29 01:52:14;;;;;;;3.50;2.90;;;;;;;;;;5027993;28;20217;-88
2023/04/29 01:54:40;;;;;;;3.60;3.00;;;;;;;;;;5030465;28;21245;-88
2023/04/29 01:57:06;;;;;;;5.17;3.57;;;;;;;;;;5050934;28;20428;-86
2023/04/29 01:59:32;;;;;;;6.50;4.07;;;;;;;;;;5041492;28;20847;-88
2023/04/29 02:01:58;;;;;;;3.43;3.10;;;;;;;;;;5031804;28;20431;-86
2023/04/29 02:04:32;;;;;;;5.13;3.60;;;13.00;99.90;;;;;;5042020;28;20492;-87
2023/04/29 02:06:58;;;;;;;5.37;3.50;;;;;;;;;;5033992;28;20972;-86
2023/04/29 02:09:24;;;;;;;6.93;3.70;;;;;;;;;;5025616;28;20441;-89
2023/04/29 02:11:50;;;;;;;6.00;2.80;;;;;;;;;;5046150;28;20443;-87
2023/04/29 02:14:16;;;;;;;9.23;3.90;;;;;;;;;;5032737;28;20487;-88
2023/04/29 02:16:44;;;;;;;6.40;3.33;;;12.60;99.90;;;;;;5033750;28;20859;-86
2023/04/29 02:19:10;;;;;;;3.87;3.10;;;;;;;;;;5025251;28;20541;-86
2023/04/29 02:21:38;;;;;;;7.78;3.15;;;;;;;;;;5042062;28;20439;-86
2023/04/29 02:24:04;;;;;;;8.13;4.10;;;;;;;;;;5042924;28;20226;-89
2023/04/29 02:26:33;;;;;;;5.50;3.40;;;12.50;99.90;;;;;;5039475;28;20251;-89
2023/04/29 02:29:02;;;;;;;6.45;3.20;;;12.50;99.90;;;;;;5021814;28;20472;-90
2023/04/29 02:31:28;;;;;;;3.72;3.42;;;;;;;;;;5043926;28;20173;-89
2023/04/29 02:33:54;;;;;;;5.70;3.53;;;;;;;;;;5028257;28;20189;-88
2023/04/29 02:36:20;;;;;;;7.60;3.70;;;;;;;;;;5029156;28;20779;-88
2023/04/29 02:38:49;;;;;;;5.70;3.70;;;;;;;;;;5028918;28;20209;-86
2023/04/29 02:41:18;;;;;;;4.75;3.75;;;12.10;99.90;;;;;;5031646;28;20181;-87
2023/04/29 02:43:44;;;;;;;5.00;3.20;;;;;;;;;;5045201;28;20174;-86
2023/04/29 02:46:10;;;;;;;5.25;3.75;;;;;;;;;;5021633;28;20202;-88
2023/04/29 02:48:36;;;;;;;4.20;3.05;;;;;;;;;;5038842;28;20195;-88
2023/04/29 02:51:02;;;;;;;4.35;3.92;;;;;;;;;;5021189;28;20174;-86
2023/04/29 02:53:28;;;;;;;5.78;3.70;;;;;;;;;;5045123;28;20518;-88
2023/04/29 02:55:54;;;;;;;7.03;3.90;;;;;;;;;;5054823;28;20201;-88
2023/04/29 02:58:21;;;;;;;5.65;2.75;;;;;;;;;;5052974;28;20453;-88
2023/04/29 03:00:46;;;;;;;6.47;3.13;;;;;;;;;;5040565;28;20569;-86
2023/04/29 03:03:13;;;;;;;4.97;4.03;;;;;;;;;;5035064;28;20177;-85
2023/04/29 03:05:38;;;;;;;6.57;4.18;;;;;;;;;;5022856;28;20976;-84
2023/04/29 03:08:04;;;;;;;3.23;2.50;;;;;;;;;;5044188;28;20193;-85
2023/04/29 03:10:30;;;;;;;5.30;3.85;;;;;;;;;;5025720;28;20419;-85
2023/04/29 03:12:56;;;;;;;3.30;2.77;;;;;;;;;;5040560;28;20189;-85
2023/04/29 03:15:22;;;;;;;3.00;2.77;;;;;;;;;;5041866;28;20521;-84
2023/04/29 03:17:48;;;;;;;6.80;3.30;;;;;;;;;;5040627;28;21154;-84
2023/04/29 03:20:14;;;;;;;3.40;3.13;;;;;;;;;;5042269;28;20507;-87
2023/04/29 03:22:40;;;;;;;5.10;3.40;;;;;;;;;;5043099;28;20439;-85
2023/04/29 03:25:06;;;;;;;4.90;3.23;;;;;;;;;;5041618;28;20188;-85
2023/04/29 03:27:32;;;;;;;4.43;3.38;;;;;;;;;;5040273;28;20439;-84
2023/04/29 03:29:58;;;;;;;5.70;4.83;;;;;;;;;;5041240;28;20840;-86
2023/04/29 03:32:25;;;;;;;6.30;3.85;;;;;;;;;;5042703;28;20496;-84
2023/04/29 03:34:51;;;;;;;7.60;4.95;;;;;;;;;;5039135;28;20188;-85
2023/04/29 03:37:17;;;;;;;5.23;3.77;;;;;;;;;;5045341;28;20205;-86
2023/04/29 03:39:43;;;;;;;4.67;3.80;;;;;;;;;;5041577;28;20447;-85
2023/04/29 03:42:11;;;;;;;3.57;3.27;;;;;;;;;;5045507;28;20428;-83
2023/04/29 03:44:37;;;;;;;6.15;3.60;;;11.80;99.90;;;;;;5041404;28;20463;-85
2023/04/29 03:47:03;;;;;;;3.30;3.00;;;;;;;;;;5040279;28;20190;-88
2023/04/29 03:49:29;;;;;;;4.90;3.57;;;;;;;;;;5028271;28;20188;-86
2023/04/29 03:51:55;;;;;;;4.00;3.60;;;;;;;;;;5029584;28;20447;-86
2023/04/29 03:54:21;;;;;;;5.67;3.67;;;;;;;;;;5036431;28;20467;-87
2023/04/29 03:56:47;;;;;;;6.27;4.77;;;;;;;;;;5052680;28;20459;-86
2023/04/29 03:59:13;;;;;;;7.07;4.30;;;;;;;;;;5032329;28;20488;-88
2023/04/29 04:01:39;;;;;;;6.30;5.20;;;;;;;;;;5032788;28;20470;-88
2023/04/29 04:04:05;;;;;;;7.63;4.75;;;;;;;;;;5044512;28;20523;-86
2023/04/29 04:06:31;;;;;;;7.60;5.20;;;;;;;;;;5050677;28;20255;-86
2023/04/29 04:08:57;;;;;;;5.77;5.10;;;;;;;;;;5044288;28;20435;-87
2023/04/29 04:11:23;;;;;;;10.60;5.47;;;;;;;;;;5042866;28;20935;-86
2023/04/29 04:13:49;;;;;;;6.70;5.10;;;;;;;;;;5042161;28;20181;-88
2023/04/29 04:16:15;;;;;;;5.77;4.60;;;;;;;;;;5031511;28;20451;-87
2023/04/29 04:18:40;;;;;;;4.90;4.27;;;;;;;;;;5044942;28;20487;-85
2023/04/29 04:21:10;;;;;;;11.13;6.70;;;11.90;99.90;;;;;;5026144;28;20996;-88
2023/04/29 04:23:39;;;;;;;9.95;6.75;;;;;;;;;;5043285;28;20440;-87
2023/04/29 04:26:05;;;;;;;12.23;6.85;;;;;;;;;;5027602;28;20236;-87
2023/04/29 04:28:31;;;;;;;12.33;6.73;;;;;;;;;;5042092;28;20655;-84
2023/04/29 04:30:57;;;;;;;12.60;6.90;;;;;;;;;;5043599;28;20437;-85
2023/04/29 04:33:23;;;;;;;11.13;7.82;;;12.20;99.90;;;;;;5025228;28;20800;-85
2023/04/29 04:35:49;;;;;;;10.43;7.70;;;;;;;;;;5045007;28;20217;-85
2023/04/29 04:38:16;;;;;;;9.30;8.17;;;;;;;;;;5041349;28;20206;-85
2023/04/29 04:40:42;;;;;;;10.25;8.30;;;;;;;;;;5030211;28;20431;-87
2023/04/29 04:43:08;;;;;;;10.67;8.60;;;;;;;;;;5034358;28;20195;-89
2023/04/29 04:45:34;;;;;;;20.10;12.50;;;;;;;;;;5030661;28;20452;-86
2023/04/29 04:48:00;;;;;;;21.43;12.20;;;;;;;;;;5050671;28;20200;-86
2023/04/29 04:50:29;;;;;;;15.33;10.77;;;12.40;99.90;;;;;;5029362;28;20443;-86
2023/04/29 04:52:57;;;;;;;18.27;10.32;;;12.30;99.90;;;;;;5046826;28;20435;-86
2023/04/29 04:55:23;;;;;;;11.00;9.60;;;;;;;;;;5030851;28;20299;-86
2023/04/29 04:57:50;;;;;;;16.17;11.93;;;;;;;;;;5046213;28;20267;-86
2023/04/29 05:00:16;;;;;;;17.33;12.27;;;;;;;;;;5032323;28;20209;-88
2023/04/29 05:02:42;;;;;;;21.17;13.15;;;;;;;;;;5044339;28;20227;-87
2023/04/29 05:05:08;;;;;;;19.75;12.88;;;;;;;;;;5046697;28;20181;-86
2023/04/29 05:07:34;;;;;;;21.77;14.10;;;;;;;;;;5049231;28;20188;-82
2023/04/29 05:10:01;;;;;;;18.50;13.88;;;12.20;99.90;;;;;;5052476;28;20185;-83
2023/04/29 05:12:29;;;;;;;24.17;13.30;;;12.30;99.90;;;;;;5049555;28;20169;-83
2023/04/29 05:14:55;;;;;;;20.95;15.00;;;;;;;;;;5043038;28;20173;-83
2023/04/29 05:17:21;;;;;;;24.33;14.93;;;;;;;;;;5030233;28;20185;-83
2023/04/29 05:19:47;;;;;;;15.75;12.63;;;;;;;;;;5030241;28;20193;-83
2023/04/29 05:22:13;;;;;;;18.27;11.40;;;;;;;;;;5028673;28;20188;-82
2023/04/29 05:24:39;;;;;;;14.93;12.00;;;12.70;99.90;;;;;;5034342;28;20522;-83
2023/04/29 05:27:05;;;;;;;13.70;9.23;;;;;;;;;;5045753;28;20652;-82
2023/04/29 05:29:31;;;;;;;11.70;8.33;;;;;;;;;;5045071;28;20185;-81
2023/04/29 05:31:58;;;;;;;16.40;9.00;;;;;;;;;;5034777;28;20520;-83
2023/04/29 05:34:24;;;;;;;11.27;7.22;;;;;;;;;;5027358;28;20241;-83
2023/04/29 05:36:50;;;;;;;8.73;5.80;;;;;;;;;;5046061;28;20280;-82
2023/04/29 05:39:16;;;;;;;6.00;5.00;;;;;;;;;;5048090;28;20197;-82
2023/04/29 05:41:42;;;;;;;4.82;4.22;;;12.80;99.90;;;;;;5032327;28;20177;-82
2023/04/29 05:44:08;;;;;;;4.70;3.83;;;;;;;;;;5046593;28;20182;-83
2023/04/29 05:46:34;;;;;;;7.57;3.72;;;;;;;;;;5034254;28;20459;-83
2023/04/29 05:49:00;;;;;;;4.30;3.10;;;;;;;;;;5051689;28;20554;-83
2023/04/29 05:51:27;;;;;;;4.33;3.40;;;;;;;;;;5053121;28;20462;-84
2023/04/29 05:53:53;;;;;;;7.77;3.23;;;17.30;99.90;;;;;;5036846;28;20515;-83
2023/04/29 05:56:19;;;;;;;6.13;3.40;;;;;;;;;;5031329;28;20443;-83
2023/04/29 05:58:45;;;;;;;4.73;4.33;;;;;;;;;;5051074;28;21051;-83
2023/04/29 06:01:11;;;;;;;4.70;3.70;;;;;;;;;;5046834;28;20428;-83
2023/04/29 06:03:37;;;;;;;7.23;4.37;;;;;;;;;;5046350;28;20424;-83
2023/04/29 06:06:03;;;;;;;3.27;2.97;;;;;;;;;;5044549;28;20449;-83
2023/04/29 06:08:29;;;;;;;3.50;3.10;;;;;;;;;;5030438;28;20448;-84
2023/04/29 06:10:55;;;;;;;6.13;2.93;;;;;;;;;;5047445;28;20526;-82
2023/04/29 06:13:21;;;;;;;7.70;2.60;;;;;;;;;;5047035;28;20470;-83
2023/04/29 06:15:47;;;;;;;3.60;2.90;;;;;;;;;;5045767;28;20456;-83
2023/04/29 06:18:13;;;;;;;5.27;2.97;;;;;;;;;;5046373;28;20512;-83
2023/04/29 06:20:39;;;;;;;4.13;2.70;;;;;;;;;;5026900;28;20431;-84
2023/04/29 06:23:06;;;;;;;3.90;3.00;;;;;;;;;;5035592;28;21169;-81
2023/04/29 06:25:31;;;;;;;6.20;2.70;;;17.50;99.90;;;;;;5036397;28;20559;-83
2023/04/29 06:27:57;;;;;;;4.70;2.80;;;;;;;;;;5026652;28;20483;-82
2023/04/29 06:30:23;;;;;;;3.07;2.30;;;;;;;;;;5046872;28;20185;-83
2023/04/29 06:32:50;;;;;;;3.10;2.80;;;;;;;;;;5038415;28;20483;-84
2023/04/29 06:35:16;;;;;;;2.50;2.30;;;;;;;;;;5051069;28;21089;-80
2023/04/29 06:37:42;;;;;;;3.10;2.47;;;;;;;;;;5049670;28;20470;-85
2023/04/29 06:40:08;;;;;;;3.63;2.37;;;;;;;;;;5061057;28;20470;-81
2023/04/29 06:42:33;;;;;;;6.43;2.00;;;14.40;99.90;;;;;;5053329;28;20423;-83
2023/04/29 06:45:00;;;;;;;3.40;3.10;;;;;;;;;;5036539;28;20458;-82
2023/04/29 06:47:26;;;;;;;3.07;2.87;;;;;;;;;;5050894;28;20173;-82
2023/04/29 06:49:53;;;;;;;3.13;2.70;;;;;;;;;;5052411;28;20427;-81
2023/04/29 06:52:18;;;;;;;3.50;2.87;;;14.20;99.90;;;;;;5052090;28;20949;-82
2023/04/29 06:54:44;;;;;;;4.03;3.00;;;;;;;;;;5059097;28;20518;-82
2023/04/29 06:57:10;;;;;;;5.47;3.67;;;;;;;;;;5036619;28;20236;-82
2023/04/29 06:59:36;;;;;;;4.67;3.13;;;;;;;;;;5048467;28;20974;-82
2023/04/29 07:02:02;;;;;;;3.30;2.70;;;;;;;;;;5055254;28;20469;-83
2023/04/29 07:04:28;;;;;;;4.10;2.93;;;;;;;;;;5048184;28;20463;-83
2023/04/29 07:06:54;;;;;;;3.67;3.27;;;13.70;99.90;;;;;;5050706;28;20528;-83
2023/04/29 07:09:22;;;;;;;2.77;2.53;;;;;;;;;;5053485;28;20455;-82
2023/04/29 07:11:48;;;;;;;4.07;3.47;;;;;;;;;;5042511;28;20420;-81
2023/04/29 07:14:14;;;;;;;4.80;3.10;;;;;;;;;;5050838;28;20411;-82
2023/04/29 07:16:40;;;;;;;9.07;3.57;;;;;;;;;;5042271;28;20489;-82
2023/04/29 07:19:07;;;;;;;4.43;3.73;;;;;;;;;;5049056;28;20953;-83
2023/04/29 07:21:33;;;;;;;2.47;2.27;;;;;;;;;;5045925;28;20828;-83
2023/04/29 07:24:01;;;;;;;4.00;3.03;;;;;;;;;;5055819;28;20944;-83
2023/04/29 07:26:27;;;;;;;3.67;2.75;;;13.70;99.90;;;;;;5061313;28;20208;-83
2023/04/29 07:28:53;;;;;;;4.43;3.13;;;;;;;;;;5057205;28;20233;-84
2023/04/29 07:31:19;;;;;;;7.22;3.10;;;13.60;99.90;;;;;;5042206;28;20695;-83
2023/04/29 07:33:46;;;;;;;9.03;3.00;;;;;;;;;;5041254;28;20177;-83
2023/04/29 07:36:12;;;;;;;4.50;3.27;;;;;;;;;;5056437;28;20227;-83
2023/04/29 07:38:38;;;;;;;4.00;3.20;;;;;;;;;;5052612;28;20858;-84
2023/04/29 07:41:04;;;;;;;3.50;3.17;;;;;;;;;;5058293;28;20411;-83
2023/04/29 07:43:30;;;;;;;4.80;2.70;;;;;;;;;;5058920;28;20403;-84
2023/04/29 07:45:56;;;;;;;4.90;3.30;;;;;;;;;;5051004;28;20437;-83
2023/04/29 07:48:22;;;;;;;4.67;3.47;;;;;;;;;;5054829;28;20454;-83
2023/04/29 07:50:48;;;;;;;4.03;3.30;;;13.40;99.90;;;;;;5057805;28;20913;-83
2023/04/29 07:53:17;;;;;;;5.00;3.30;;;;;;;;;;5036208;28;20419;-83
2023/04/29 07:55:43;;;;;;;4.70;3.30;;;;;;;;;;5048037;28;20245;-84
2023/04/29 07:58:09;;;;;;;4.73;3.83;;;;;;;;;;5061997;28;20451;-83
2023/04/29 08:00:35;;;;;;;4.97;3.13;;;;;;;;;;5045346;28;20434;-83
2023/04/29 08:03:01;;;;;;;5.60;3.50;;;;;;;;;;5059566;28;20411;-83
2023/04/29 08:05:29;;;;;;;3.43;3.13;;;13.50;99.90;;;;;;5045881;28;20445;-83
2023/04/29 08:07:54;;;;;;;7.47;4.90;;;13.40;99.90;;;;;;5055698;28;20498;-83
2023/04/29 08:10:21;;;;;;;5.07;3.93;;;;;;;;;;5043335;28;20466;-83
2023/04/29 08:12:47;;;;;;;7.03;4.27;;;13.50;99.90;;;;;;5034935;28;20182;-84
2023/04/29 08:15:14;;;;;;;7.23;3.63;;;;;;;;;;5042667;28;21256;-83
2023/04/29 08:17:40;;;;;;;5.63;5.03;;;;;;;;;;5037365;28;20408;-83
2023/04/29 08:20:07;;;;;;;6.47;4.82;;;13.80;99.90;;;;;;5058926;28;20415;-83
2023/04/29 08:22:33;;;;;;;12.03;4.80;;;;;;;;;;5060400;28;20223;-84
2023/04/29 08:24:59;;;;;;;4.40;3.80;;;;;;;;;;5047324;28;20472;-83
2023/04/29 08:27:25;;;;;;;6.03;4.47;;;;;;;;;;5050530;28;20435;-85
2023/04/29 08:29:51;;;;;;;6.77;4.13;;;;;;;;;;5049701;28;20454;-84
2023/04/29 08:32:17;;;;;;;5.77;3.57;;;;;;;;;;5042791;28;20434;-83
2023/04/29 08:34:43;;;;;;;7.50;3.93;;;;;;;;;;5044605;28;20412;-85
2023/04/29 08:37:10;;;;;;;6.17;3.97;;;13.90;99.90;;;;;;5043474;28;20428;-83
2023/04/29 08:39:36;;;;;;;6.07;3.53;;;14.00;99.90;;;;;;5024143;28;20506;-85
2023/04/29 08:42:11;;;;;;;4.83;4.17;;;14.00;99.90;;;;;;5023099;28;20428;-84
2023/04/29 08:44:37;;;;;;;6.53;4.90;;;;;;;;;;5041879;28;20169;-84
2023/04/29 08:47:03;;;;;;;6.20;4.57;;;;;;;;;;5048842;28;20515;-84
2023/04/29 08:49:31;;;;;;;9.00;4.17;;;;;;;;;;5031622;28;20434;-85
2023/04/29 08:51:57;;;;;;;6.53;4.30;;;;;;;;;;5057048;28;20879;-85
2023/04/29 08:54:23;;;;;;;5.73;4.67;;;;;;;;;;5059567;28;20442;-84
2023/04/29 08:56:51;;;;;;;5.63;4.63;;;13.90;99.90;;;;;;5060224;28;20423;-85
2023/04/29 08:59:17;;;;;;;7.20;5.67;;;13.70;99.90;;;;;;5042281;28;20455;-84
2023/04/29 09:01:49;;;;;;;7.00;4.97;;;13.60;99.90;;;;;;5060578;28;20399;-83
2023/04/29 09:04:28;;;;;;;10.13;5.67;;;13.40;99.90;;;;;;5062121;28;20392;-83
2023/04/29 09:06:56;;;;;;;6.17;4.33;;;13.50;99.90;;;;;;5061497;28;20935;-83
2023/04/29 09:09:23;;;;;;;7.70;5.27;;;13.40;99.90;;;;;;5061723;28;20473;-83
2023/04/29 09:11:49;;;;;;;6.80;4.53;;;;;;;;;;5061309;28;20836;-82
2023/04/29 09:14:19;;;;;;;7.10;4.97;;;13.20;99.90;;;;;;5061712;28;20400;-83
2023/04/29 09:16:46;;;;;;;6.18;4.78;;;13.20;99.90;;;;;;5062489;28;20485;-83
2023/04/29 09:19:29;;;;;;;5.25;4.65;;;13.20;99.90;;;;;;5044320;28;20235;-84
2023/04/29 09:21:56;;;;;;;11.20;8.60;;;;;;;;;;5043590;28;20179;-83
2023/04/29 09:24:28;;;;;;;11.40;8.07;;;13.30;99.90;;;;;;5062043;28;20396;-84
2023/04/29 09:26:54;;;;;;;13.80;9.40;;;;;;;;;;5062000;28;20444;-83
2023/04/29 09:29:20;;;;;;;11.10;8.53;;;;;;;;;;5047548;28;20924;-83
2023/04/29 09:31:47;;;;;;;10.57;8.20;;;;;;;;;;5069158;28;21022;-83
2023/04/29 09:34:13;;;;;;;13.67;9.50;;;13.50;99.90;;;;;;5050692;28;20416;-84
2023/04/29 09:36:48;;;;;;;13.03;7.70;;;13.40;99.90;;;;;;5068864;28;20427;-83
2023/04/29 09:39:18;;;;;;;13.40;8.88;;;13.40;99.90;;;;;;5045207;28;20455;-83
2023/04/29 09:41:53;;;;;;;17.10;9.40;;;13.40;99.90;;;;;;5061949;28;20169;-84
2023/04/29 09:44:21;;;;;;;14.53;8.67;;;13.40;99.90;;;;;;5042606;28;20415;-84
2023/04/29 09:47:07;;;;;;;12.17;8.43;;;13.40;99.90;;;;;;5043609;28;20460;-83
2023/04/29 09:49:39;;;;;;;13.27;9.40;;;13.60;99.90;;;;;;5041390;28;20989;-84
2023/04/29 09:52:09;;;;;;;15.37;9.10;;;13.50;99.90;;;;;;5060461;28;20407;-83
2023/04/29 09:54:37;;;;;;;13.43;7.82;;;13.50;99.90;;;;;;5043030;28;20489;-85
2023/04/29 09:57:06;;;;;;;11.63;8.57;;;;;;;;;;5041935;28;20201;-85
2023/04/29 09:59:36;;;;;;;10.60;7.40;;;13.40;99.90;;;;;;5059481;28;20444;-85
2023/04/29 10:02:09;;;;;;;14.40;8.60;;;13.40;99.90;;;;;;5059505;28;20391;-85
2023/04/29 10:04:38;;;;;;;17.13;9.82;;;13.40;99.90;;;;;;5040687;28;20502;-84
2023/04/29 10:07:04;;;;;;;15.15;9.32;;;;;;;;;;5041176;28;20197;-85
2023/04/29 10:09:32;;;;;;;13.97;9.17;;;13.20;99.90;;;;;;5058706;28;20177;-82
2023/04/29 10:12:00;;;;;;;13.45;8.40;;;13.10;99.90;;;;;;5040078;28;20416;-84
2023/04/29 10:14:27;;;;;;;15.67;9.30;;;;;;;;;;5042515;28;20299;-83
2023/04/29 10:17:00;;;;;;;13.35;8.75;;;12.90;99.90;;;;;;5041783;28;20502;-83
2023/04/29 10:19:34;;;;;;;21.65;9.70;;;13.00;99.90;;;;;;5060311;28;20731;-83
2023/04/29 10:22:11;;;;;;;14.00;9.30;;;13.20;99.90;;;;;;5042585;28;20166;-84
2023/04/29 10:24:37;;;;;;;14.77;9.50;;;;;;;;;;5043978;28;20468;-84
2023/04/29 10:27:06;;;;;;;14.97;9.63;;;13.60;99.90;;;;;;5061384;28;20509;-84
2023/04/29 10:29:35;;;;;;;13.67;9.47;;;13.90;99.90;;;;;;5043838;28;20494;-83
2023/04/29 10:32:03;;;;;;;13.17;8.60;;;14.00;99.90;;;;;;5062654;28;20422;-83
2023/04/29 10:34:30;;;;;;;11.57;8.67;;;14.30;99.90;;;;;;5045322;28;20423;-84
2023/04/29 10:36:57;;;;;;;14.03;8.80;;;;;;;;;;5063365;28;21098;-83
2023/04/29 10:40:02;;;;;;;14.50;9.10;;;14.80;99.90;;;;;;5062156;28;20822;-85
2023/04/29 10:42:44;;;;;;;12.73;7.97;;;15.00;99.90;;;;;;5032179;28;20784;-84
2023/04/29 10:45:31;;;;;;;14.17;8.87;;;14.90;99.90;;;;;;5061228;28;20911;-84
2023/04/29 10:48:08;;;;;;;15.53;10.00;;;15.30;99.90;;;;;;5043344;28;20446;-84
2023/04/29 10:50:46;;;;;;;15.43;10.13;;;15.30;99.90;;;;;;5043320;28;20419;-84
2023/04/29 10:53:16;;;;;;;14.83;9.77;;;15.50;99.90;;;;;;5042642;28;20558;-84
2023/04/29 10:55:42;;;;;;;13.57;9.23;;;;;;;;;;5043809;28;20423;-84
2023/04/29 10:58:45;;;;;;;14.37;8.27;;;14.40;99.90;;;;;;5061060;28;20517;-84
2023/04/29 11:01:13;;;;;;;15.17;8.80;;;14.40;99.90;;;;;;5043237;28;20415;-83
2023/04/29 11:03:47;;;;;;;14.97;8.40;;;14.40;99.90;;;;;;5044017;28;20443;-84
2023/04/29 11:06:13;;;;;;;14.60;8.73;;;;;;;;;;5042176;28;20498;-84
2023/04/29 11:08:39;;;;;;;15.03;9.23;;;;;;;;;;5020974;23;20497;-82
2023/04/29 11:11:05;;;;;;;15.63;9.73;;;14.20;99.90;;;;;;5001889;28;20490;-83
2023/04/29 11:13:33;;;;;;;12.83;9.50;;;14.40;99.90;;;;;;5018160;28;20824;-82
2023/04/29 11:16:10;;;;;;;13.93;7.70;;;14.20;99.90;;;;;;5017584;28;20428;-82
2023/04/29 11:18:57;;;;;;;12.10;7.83;;;14.20;99.90;;;;;;5008276;28;20876;-82
2023/04/29 11:21:23;;;;;;;12.27;7.97;;;;;;;;;;4985681;28;20522;-79
2023/04/29 11:23:51;;;;;;;14.23;8.40;;;14.80;99.90;;;;;;5000010;28;20430;-83
2023/04/29 11:26:18;;;;;;;15.00;8.93;;;15.50;99.90;;;;;;5000303;28;20414;-83
2023/04/29 11:28:45;;;;;;;11.73;8.23;;;16.00;99.90;;;;;;5001225;28;20791;-83
2023/04/29 11:31:10;;;;;;;14.60;7.87;;;16.30;99.90;;;;;;5002446;28;20417;-83
2023/04/29 11:33:36;;;;;;;10.40;7.83;;;;;;;;;;5004254;28;20406;-83
2023/04/29 11:36:03;;;;;;;19.73;8.50;;;16.50;99.90;;;;;;5002870;28;20229;-83
2023/04/29 11:38:29;;;;;;;12.10;8.33;;;15.80;99.90;;;;;;5000530;28;20472;-82
2023/04/29 11:40:58;;;;;;;16.73;8.20;;;15.90;99.90;;;;;;5001064;28;20428;-80
2023/04/29 11:43:24;;;;;;;11.80;8.33;;;16.00;99.90;;;;;;5003451;28;20469;-82
2023/04/29 11:45:51;;;;;;;13.57;8.50;;;15.90;99.90;;;;;;5002163;28;20426;-82
2023/04/29 11:48:21;;;;;;;13.13;7.37;;;15.60;99.90;;;;;;4999789;28;20799;-82
2023/04/29 11:50:48;;;;;;;9.90;7.60;;;15.90;99.90;;;;;;4997487;28;20789;-82
2023/04/29 11:53:14;;;;;;;14.27;8.50;;;;;;;;;;5001711;28;20411;-82
2023/04/29 11:55:44;;;;;;;12.40;7.80;;;15.80;99.90;;;;;;5001562;28;20406;-82
2023/04/29 11:58:10;;;;;;;13.60;8.30;;;;;;;;;;4999986;28;20525;-83
2023/04/29 12:00:36;;;;;;;13.50;8.80;;;15.30;99.90;;;;;;5000290;28;20833;-82
2023/04/29 12:03:16;;;;;;;12.30;8.03;;;15.10;99.90;;;;;;4998800;28;20444;-81
2023/04/29 12:05:52;;;;;;;13.40;8.77;;;15.30;99.90;;;;;;4996695;28;20988;-83
2023/04/29 12:08:22;;;;;;;11.10;8.10;;;15.60;99.90;;;;;;4999403;28;20481;-82
2023/04/29 12:10:48;;;;;;;19.63;7.07;;;;;;;;;;4991984;28;20441;-83
2023/04/29 12:13:16;;;;;;;13.33;8.07;;;15.20;99.90;;;;;;5007672;28;20454;-82
2023/04/29 12:15:42;;;;;;;18.40;9.13;;;14.80;99.90;;;;;;4998908;28;20399;-82
2023/04/29 12:18:07;;;;;;;17.37;8.07;;;14.60;99.90;;;;;;4999225;28;20469;-81
2023/04/29 12:20:33;;;;;;;14.63;7.63;;;;;;;;;;4997938;28;20498;-82
2023/04/29 12:23:17;;;;;;;14.03;8.10;;;14.80;99.90;;;;;;4999041;28;20761;-82
2023/04/29 12:25:57;;;;;;;12.93;7.50;;;14.50;99.90;;;;;;4998229;28;20463;-81
2023/04/29 12:28:23;;;;;;;11.27;7.90;;;14.50;99.90;;;;;;4989622;28;21241;-82
2023/04/29 12:30:51;;;;;;;11.27;7.40;;;14.50;99.90;;;;;;4988804;28;20451;-81
2023/04/29 12:33:25;;;;;;;17.23;9.00;;;14.60;99.90;;;;;;4974424;28;20998;-82
2023/04/29 12:35:53;;;;;;;13.97;9.50;;;14.50;99.90;;;;;;5002465;28;20397;-82
2023/04/29 12:38:27;;;;;;;12.47;8.83;;;14.80;99.90;;;;;;5000298;28;20461;-82
2023/04/29 12:40:54;;;;;;;14.43;7.33;;;;;;;;;;5002598;28;20442;-82
2023/04/29 12:43:28;;;;;;;14.27;8.23;;;14.50;99.90;;;;;;4997875;28;20472;-81
2023/04/29 12:46:01;;;;;;;12.97;7.50;;;15.00;99.90;;;;;;5008302;28;20467;-82
2023/04/29 12:48:31;;;;;;;10.33;7.20;;;15.20;99.90;;;;;;4978932;28;20465;-82
2023/04/29 12:50:58;;;;;;;13.73;7.83;;;;;;;;;;4981320;28;20545;-81
2023/04/29 12:53:25;;;;;;;11.57;7.07;;;14.90;99.90;;;;;;5000906;28;20462;-82
2023/04/29 12:55:51;;;;;;;11.27;7.07;;;14.60;99.90;;;;;;5002910;28;20829;-82
2023/04/29 12:58:17;;;;;;;14.07;7.60;;;;;;;;;;4995896;28;20986;-82
2023/04/29 13:00:43;;;;;;;13.40;6.77;;;;;;;;;;5003529;28;20972;-82
2023/04/29 13:03:09;;;;;;;13.80;8.10;;;;;;;;;;5003571;28;20433;-81
2023/04/29 13:05:35;;;;;;;12.00;7.60;;;;;;;;;;5003002;28;20442;-82
2023/04/29 13:08:01;;;;;;;11.10;7.77;;;;;;;;;;5001701;28;20466;-82
2023/04/29 13:10:27;;;;;;;11.50;7.40;;;14.90;99.90;;;;;;4983503;28;20445;-81
2023/04/29 13:12:53;;;;;;;12.33;7.73;;;;;;;;;;5000718;28;20985;-81
2023/04/29 13:15:20;;;;;;;11.20;8.47;;;;;;;;;;5000029;28;20442;-82
2023/04/29 13:17:46;;;;;;;13.80;7.40;;;;;;;;;;5007091;28;20447;-82
2023/04/29 13:20:12;;;;;;;11.27;7.60;;;16.10;99.90;;;;;;5006825;28;20461;-83
2023/04/29 13:22:38;;;;;;;13.00;7.60;;;;;;;;;;5005752;28;20493;-81
2023/04/29 13:25:04;;;;;;;12.77;7.40;;;15.70;99.90;;;;;;5002988;28;20480;-82
2023/04/29 13:27:30;;;;;;;11.73;6.87;;;;;;;;;;4996547;28;20458;-82
2023/04/29 13:29:56;;;;;;;12.13;6.60;;;;;;;;;;5001981;28;20507;-82
2023/04/29 13:32:23;;;;;;;11.60;6.93;;;;;;;;;;5000437;28;20454;-82
2023/04/29 13:34:51;;;;;;;15.50;7.13;;;15.50;99.90;;;;;;5015597;28;20432;-82
2023/04/29 13:37:18;;;;;;;11.73;7.23;;;;;;;;;;5023359;28;20440;-81
2023/04/29 13:39:44;;;;;;;11.53;7.90;;;;;;;;;;5022289;28;20480;-81
2023/04/29 13:42:10;;;;;;;11.77;7.70;;;15.90;99.90;;;;;;5023532;28;20891;-82
2023/04/29 13:44:36;;;;;;;12.00;7.53;;;;;;;;;;5008614;28;20473;-82
2023/04/29 13:47:04;;;;;;;14.67;8.90;;;;;;;;;;5002283;28;20203;-82
2023/04/29 13:49:30;;;;;;;14.63;6.90;;;;;;;;;;5023319;28;20517;-82
2023/04/29 13:51:56;;;;;;;9.93;7.30;;;;;;;;;;5025494;28;20404;-82
2023/04/29 13:54:22;;;;;;;16.30;7.80;;;;;;;;;;5024352;28;20385;-82